Granite Falls, WA

2:49 AM PST on February 10, 2016 (GMT -0800)
CopperMoon, Woods Lake Road | | Change Station
CLOSE
Current Station
Personal Weather Station
Location: Monroe, WA
Elevation: 712 ft
Nearby Weather Stations

Elev 712 ft 47.93 °N, 121.85 °W | Updated 4 minutes ago

Partly Cloudy
Partly Cloudy
43.7 °F
Feels Like 44 °F
N
1.3
Wind Variable Wind from SW
Gusts 2.7 mph

Today
High -- | Low -- °F
--% Chance of Precip.
Yesterday
High -- | Low -- °F
Precip. -- in
Pressure 30.13 in
Visibility 10.0 miles
Clouds Clear
Windchill 44 °F
Dew Point 38 °F
Humidity 81%
Rainfall 0.00 in
Snow Depth Not available.
7:21 AM 5:20 PM
Waxing Crescent, 5% visible
METAR KAWO 101035Z AUTO 00000KT 10SM CLR 04/02 A3013 RMK AO1
Pressure 30.13 in
Visibility 10.0 miles
Clouds Clear
Windchill 44 °F
Dew Point 38 °F
Humidity 81%
Rainfall 0.00 in
Snow Depth Not available.
7:21 AM 5:20 PM
Waxing Crescent, 5% visible
METAR KAWO 101035Z AUTO 00000KT 10SM CLR 04/02 A3013 RMK AO1

10-Day Weather Forecast

Almanac

Astronomy

Feb. 10, 2016 Rise Set
Actual Time
Civil Twilight
Nautical Twilight
Astronomical Twilight
Moon
Length of Visible Light
Length of Day
Tomorrow will be .
, % of the Moon is Illuminated

Today's Extremes

State Highs State Lows

Community

WunderPhotos

Upload Photos

1,891,830 photos uploaded!

WunderBlog® & News

Nearby

Air Quality

  Air Quality AQ Index Pollutant
Not available.

Snow Depth

Station Depth Elevation

Earthquake Activity

City Distance Mag. Time & Date
Minimum magnitude displayed is 2.5.

Coastal Water Temperatures

Place Temperature

Stations

Nearby Weather Stations

Station Location Temp. Windchill Dew Point Humidity Wind Precip. Elev Updated Type
                   

Watches & Warnings

There are currently no watches in effect.